RUK45VZ EGPH-EGSS
Flight info
| Callsign | RUK45VZ |
|---|---|
| Flight time | 1h 7m |
| Altitude | 33000 |
| Route | GOSAM P600 FENIK L612 ELBUS UL612 LISTO |
| Aircraft | B738/M-SDE3FGILRWY/SB1 |
Departure
| Time | 2026-04-25 11:05 |
|---|---|
| Airport | Edinburgh Airport (EGPH) |
Arrival
| Time | 2026-04-25 12:13 |
|---|---|
| Airport | London Stansted Airport (EGSS) |
| Time | Latitude | Longitude | Altitude | Speed | Heading |
|---|---|---|---|---|---|
| 2026-04-25 10:16 | 55.94844 | -3.35858 | 107 ft | 0 kts | 208° |
| 2026-04-25 10:51 | 55.94852 | -3.35851 | 106 ft | 2 kts | 210° |
| 2026-04-25 10:51 | 55.94866 | -3.35834 | 104 ft | 2 kts | 219° |
| 2026-04-25 10:51 | 55.94878 | -3.35815 | 104 ft | 2 kts | 229° |
| 2026-04-25 10:52 | 55.94887 | -3.35793 | 105 ft | 2 kts | 244° |
| 2026-04-25 10:52 | 55.94892 | -3.35767 | 105 ft | 2 kts | 262° |
| 2026-04-25 10:52 | 55.94892 | -3.35740 | 105 ft | 2 kts | 279° |
| 2026-04-25 10:52 | 55.94888 | -3.35714 | 105 ft | 2 kts | 292° |
| 2026-04-25 10:53 | 55.94884 | -3.35698 | 107 ft | 1 kts | 297° |
| 2026-04-25 10:53 | 55.94884 | -3.35696 | 107 ft | 0 kts | 298° |
| 2026-04-25 10:55 | 55.94887 | -3.35706 | 107 ft | 3 kts | 298° |
| 2026-04-25 10:55 | 55.94900 | -3.35750 | 105 ft | 5 kts | 299° |
| 2026-04-25 10:56 | 55.94922 | -3.35818 | 107 ft | 7 kts | 300° |
| 2026-04-25 10:56 | 55.94971 | -3.35860 | 107 ft | 9 kts | 1° |
| 2026-04-25 10:56 | 55.95036 | -3.35810 | 107 ft | 12 kts | 25° |
| 2026-04-25 10:56 | 55.95111 | -3.35822 | 107 ft | 12 kts | 319° |
| 2026-04-25 10:57 | 55.95170 | -3.35942 | 107 ft | 15 kts | 324° |
| 2026-04-25 10:57 | 55.95193 | -3.36103 | 105 ft | 15 kts | 240° |
| 2026-04-25 10:57 | 55.95141 | -3.36262 | 108 ft | 14 kts | 239° |
| 2026-04-25 10:57 | 55.95090 | -3.36413 | 110 ft | 14 kts | 238° |
| 2026-04-25 10:58 | 55.95041 | -3.36554 | 111 ft | 13 kts | 238° |
| 2026-04-25 10:58 | 55.94992 | -3.36697 | 111 ft | 13 kts | 240° |
| 2026-04-25 10:58 | 55.94946 | -3.36839 | 109 ft | 14 kts | 240° |
| 2026-04-25 10:58 | 55.94893 | -3.36993 | 108 ft | 15 kts | 238° |
| 2026-04-25 10:59 | 55.94841 | -3.37145 | 108 ft | 14 kts | 240° |
| 2026-04-25 10:59 | 55.94793 | -3.37292 | 110 ft | 13 kts | 239° |
| 2026-04-25 10:59 | 55.94747 | -3.37434 | 112 ft | 13 kts | 242° |
| 2026-04-25 10:59 | 55.94699 | -3.37564 | 113 ft | 13 kts | 237° |
| 2026-04-25 11:00 | 55.94654 | -3.37696 | 115 ft | 12 kts | 238° |
| 2026-04-25 11:00 | 55.94609 | -3.37827 | 115 ft | 13 kts | 239° |
| 2026-04-25 11:00 | 55.94563 | -3.37963 | 115 ft | 13 kts | 239° |
| 2026-04-25 11:00 | 55.94518 | -3.38099 | 112 ft | 13 kts | 239° |
| 2026-04-25 11:01 | 55.94471 | -3.38240 | 113 ft | 13 kts | 239° |
| 2026-04-25 11:01 | 55.94424 | -3.38378 | 115 ft | 13 kts | 238° |
| 2026-04-25 11:01 | 55.94379 | -3.38509 | 117 ft | 12 kts | 238° |
| 2026-04-25 11:01 | 55.94334 | -3.38639 | 119 ft | 12 kts | 238° |
| 2026-04-25 11:02 | 55.94298 | -3.38747 | 117 ft | 0 kts | 239° |
| 2026-04-25 11:02 | 55.94296 | -3.38751 | 117 ft | 1 kts | 239° |
| 2026-04-25 11:02 | 55.94287 | -3.38782 | 120 ft | 4 kts | 244° |
| 2026-04-25 11:03 | 55.94284 | -3.38838 | 122 ft | 5 kts | 284° |
| 2026-04-25 11:03 | 55.94307 | -3.38887 | 121 ft | 6 kts | 321° |
| 2026-04-25 11:03 | 55.94353 | -3.38939 | 119 ft | 10 kts | 328° |
| 2026-04-25 11:03 | 55.94423 | -3.38936 | 120 ft | 12 kts | 45° |
| 2026-04-25 11:04 | 55.94455 | -3.38850 | 119 ft | 0 kts | 59° |
| 2026-04-25 11:04 | 55.94466 | -3.38816 | 118 ft | 26 kts | 59° |
| 2026-04-25 11:05 | 55.94921 | -3.37464 | 113 ft | 159 kts | 62° |
| 2026-04-25 11:05 | 55.95581 | -3.35504 | 679 ft | 203 kts | 58° |
| 2026-04-25 11:05 | 55.96429 | -3.33293 | 1564 ft | 220 kts | 47° |
| 2026-04-25 11:05 | 55.97597 | -3.31531 | 2809 ft | 226 kts | 38° |
| 2026-04-25 11:06 | 55.98837 | -3.29651 | 3560 ft | 239 kts | 40° |
| 2026-04-25 11:06 | 56.00248 | -3.28065 | 4238 ft | 244 kts | 13° |
| 2026-04-25 11:06 | 56.01894 | -3.28286 | 5032 ft | 240 kts | 334° |
| 2026-04-25 11:06 | 56.02777 | -3.29452 | 5521 ft | 241 kts | 310° |
| 2026-04-25 11:07 | 56.03403 | -3.33202 | 5983 ft | 245 kts | 263° |
| 2026-04-25 11:07 | 56.02986 | -3.36142 | 5999 ft | 247 kts | 254° |
| 2026-04-25 11:07 | 56.02516 | -3.39087 | 5993 ft | 245 kts | 255° |
| 2026-04-25 11:07 | 56.02055 | -3.42031 | 6148 ft | 248 kts | 255° |
| 2026-04-25 11:08 | 56.01747 | -3.44019 | 6613 ft | 250 kts | 255° |
| 2026-04-25 11:08 | 56.01305 | -3.47018 | 7465 ft | 249 kts | 256° |
| 2026-04-25 11:08 | 56.00875 | -3.50041 | 8236 ft | 254 kts | 256° |
| 2026-04-25 11:08 | 56.00269 | -3.54317 | 9054 ft | 276 kts | 256° |
| 2026-04-25 11:09 | 55.99790 | -3.57684 | 9947 ft | 282 kts | 256° |
| 2026-04-25 11:09 | 55.99461 | -3.59989 | 10501 ft | 289 kts | 256° |
| 2026-04-25 11:09 | 55.98938 | -3.63650 | 10764 ft | 317 kts | 256° |
| 2026-04-25 11:09 | 55.98388 | -3.67486 | 11406 ft | 328 kts | 256° |
| 2026-04-25 11:10 | 55.97817 | -3.71482 | 12287 ft | 332 kts | 256° |
| 2026-04-25 11:10 | 55.97432 | -3.74142 | 12893 ft | 334 kts | 256° |
| 2026-04-25 11:10 | 55.96647 | -3.79572 | 14013 ft | 342 kts | 256° |
| 2026-04-25 11:10 | 55.96054 | -3.83671 | 14741 ft | 347 kts | 256° |
| 2026-04-25 11:11 | 55.95446 | -3.87870 | 15539 ft | 351 kts | 256° |
| 2026-04-25 11:11 | 55.94829 | -3.92106 | 16323 ft | 354 kts | 255° |
| 2026-04-25 11:11 | 55.94203 | -3.96377 | 17102 ft | 358 kts | 254° |
| 2026-04-25 11:11 | 55.93128 | -4.00402 | 17806 ft | 364 kts | 230° |
| 2026-04-25 11:12 | 55.91200 | -4.03237 | 18607 ft | 367 kts | 210° |
| 2026-04-25 11:12 | 55.88964 | -4.05503 | 19299 ft | 370 kts | 212° |
| 2026-04-25 11:12 | 55.86812 | -4.08068 | 19915 ft | 375 kts | 216° |
| 2026-04-25 11:12 | 55.84741 | -4.10955 | 20561 ft | 379 kts | 220° |
| 2026-04-25 11:13 | 55.82738 | -4.14018 | 21230 ft | 382 kts | 221° |
| 2026-04-25 11:13 | 55.80733 | -4.17179 | 21892 ft | 386 kts | 221° |
| 2026-04-25 11:13 | 55.78714 | -4.20366 | 22530 ft | 390 kts | 221° |
| 2026-04-25 11:13 | 55.76569 | -4.23336 | 23125 ft | 394 kts | 214° |
| 2026-04-25 11:14 | 55.74231 | -4.25884 | 23718 ft | 397 kts | 202° |
| 2026-04-25 11:14 | 55.71560 | -4.26887 | 24208 ft | 400 kts | 179° |
| 2026-04-25 11:14 | 55.68798 | -4.26268 | 24760 ft | 401 kts | 164° |
| 2026-04-25 11:14 | 55.66237 | -4.24280 | 25229 ft | 404 kts | 150° |
| 2026-04-25 11:15 | 55.63781 | -4.21810 | 25699 ft | 408 kts | 149° |
| 2026-04-25 11:15 | 55.61294 | -4.19296 | 26145 ft | 412 kts | 150° |
| 2026-04-25 11:15 | 55.58789 | -4.16787 | 26603 ft | 416 kts | 150° |
| 2026-04-25 11:15 | 55.56261 | -4.14289 | 27063 ft | 419 kts | 150° |
| 2026-04-25 11:16 | 55.51158 | -4.09310 | 28129 ft | 420 kts | 150° |
| 2026-04-25 11:16 | 55.48609 | -4.06835 | 28807 ft | 418 kts | 150° |
| 2026-04-25 11:16 | 55.46064 | -4.04363 | 29444 ft | 416 kts | 150° |
| 2026-04-25 11:17 | 55.43527 | -4.01898 | 30009 ft | 416 kts | 150° |
| 2026-04-25 11:17 | 55.40991 | -3.99437 | 30516 ft | 416 kts | 150° |
| 2026-04-25 11:17 | 55.38458 | -3.96983 | 31017 ft | 415 kts | 150° |
| 2026-04-25 11:17 | 55.35929 | -3.94536 | 31505 ft | 414 kts | 150° |
| 2026-04-25 11:18 | 55.33409 | -3.92099 | 31975 ft | 414 kts | 150° |
| 2026-04-25 11:18 | 55.30880 | -3.89657 | 32436 ft | 414 kts | 150° |
| 2026-04-25 11:18 | 55.28366 | -3.87233 | 32905 ft | 413 kts | 150° |
| 2026-04-25 11:18 | 55.25838 | -3.84800 | 33205 ft | 416 kts | 150° |
| 2026-04-25 11:19 | 55.20707 | -3.79875 | 33192 ft | 418 kts | 150° |
| 2026-04-25 11:19 | 55.15657 | -3.75041 | 33191 ft | 411 kts | 150° |
| 2026-04-25 11:20 | 55.10621 | -3.70230 | 33206 ft | 414 kts | 150° |
| 2026-04-25 11:20 | 55.05576 | -3.65421 | 33214 ft | 416 kts | 150° |
| 2026-04-25 11:21 | 55.00478 | -3.60577 | 33213 ft | 418 kts | 150° |
| 2026-04-25 11:21 | 54.95368 | -3.55749 | 33202 ft | 417 kts | 150° |
| 2026-04-25 11:22 | 54.91130 | -3.51772 | 33211 ft | 415 kts | 150° |
| 2026-04-25 11:22 | 54.85190 | -3.46212 | 33212 ft | 413 kts | 150° |
| 2026-04-25 11:23 | 54.80140 | -3.41494 | 33219 ft | 412 kts | 150° |
| 2026-04-25 11:23 | 54.75085 | -3.36784 | 33217 ft | 412 kts | 150° |
| 2026-04-25 11:24 | 54.69972 | -3.32236 | 33209 ft | 414 kts | 154° |
| 2026-04-25 11:24 | 54.64719 | -3.28312 | 33215 ft | 414 kts | 156° |
| 2026-04-25 11:25 | 54.59396 | -3.24428 | 33188 ft | 415 kts | 155° |
| 2026-04-25 11:25 | 54.54083 | -3.20494 | 33216 ft | 415 kts | 155° |
| 2026-04-25 11:26 | 54.48766 | -3.16528 | 33206 ft | 416 kts | 155° |
| 2026-04-25 11:26 | 54.43452 | -3.12569 | 33205 ft | 416 kts | 155° |
| 2026-04-25 11:27 | 54.38177 | -3.08651 | 33204 ft | 416 kts | 155° |
| 2026-04-25 11:27 | 54.33756 | -3.05376 | 33199 ft | 415 kts | 155° |
| 2026-04-25 11:28 | 54.27540 | -3.00783 | 33217 ft | 415 kts | 156° |
| 2026-04-25 11:28 | 54.22264 | -2.96901 | 33217 ft | 415 kts | 156° |
| 2026-04-25 11:29 | 54.16954 | -2.93018 | 33204 ft | 414 kts | 156° |
| 2026-04-25 11:29 | 54.11654 | -2.89153 | 33200 ft | 413 kts | 156° |
| 2026-04-25 11:30 | 54.06362 | -2.85301 | 33204 ft | 413 kts | 156° |
| 2026-04-25 11:30 | 54.01099 | -2.81481 | 33209 ft | 413 kts | 157° |
| 2026-04-25 11:31 | 53.95811 | -2.77674 | 33211 ft | 413 kts | 157° |
| 2026-04-25 11:31 | 53.90511 | -2.73879 | 33209 ft | 413 kts | 157° |
| 2026-04-25 11:32 | 53.85232 | -2.70061 | 33211 ft | 412 kts | 157° |
| 2026-04-25 11:32 | 53.79983 | -2.66263 | 33206 ft | 412 kts | 157° |
| 2026-04-25 11:33 | 53.74685 | -2.62454 | 33209 ft | 412 kts | 158° |
| 2026-04-25 11:33 | 53.69441 | -2.58706 | 33229 ft | 409 kts | 159° |
| 2026-04-25 11:34 | 53.64280 | -2.55025 | 33211 ft | 400 kts | 159° |
| 2026-04-25 11:34 | 53.59113 | -2.51347 | 33210 ft | 405 kts | 159° |
| 2026-04-25 11:35 | 53.53903 | -2.47635 | 33205 ft | 407 kts | 159° |
| 2026-04-25 11:35 | 53.48669 | -2.43915 | 33207 ft | 408 kts | 160° |
| 2026-04-25 11:36 | 53.43464 | -2.40233 | 33207 ft | 407 kts | 160° |
| 2026-04-25 11:36 | 53.38236 | -2.36550 | 33211 ft | 406 kts | 159° |
| 2026-04-25 11:37 | 53.33070 | -2.32889 | 33210 ft | 404 kts | 159° |
| 2026-04-25 11:37 | 53.27877 | -2.29261 | 33201 ft | 403 kts | 159° |
| 2026-04-25 11:38 | 53.22689 | -2.25652 | 33214 ft | 403 kts | 160° |
| 2026-04-25 11:38 | 53.17530 | -2.22108 | 33209 ft | 403 kts | 160° |
| 2026-04-25 11:39 | 53.12478 | -2.18023 | 33211 ft | 407 kts | 144° |
| 2026-04-25 11:39 | 53.07995 | -2.12225 | 33208 ft | 408 kts | 145° |
| 2026-04-25 11:40 | 53.03454 | -2.06618 | 32807 ft | 406 kts | 146° |
| 2026-04-25 11:40 | 53.01188 | -2.03863 | 32426 ft | 402 kts | 146° |
| 2026-04-25 11:40 | 52.98945 | -2.01147 | 32098 ft | 397 kts | 146° |
| 2026-04-25 11:41 | 52.96712 | -1.98447 | 31706 ft | 395 kts | 146° |
| 2026-04-25 11:41 | 52.94499 | -1.95774 | 31325 ft | 392 kts | 146° |
| 2026-04-25 11:41 | 52.92293 | -1.93112 | 30958 ft | 389 kts | 146° |
| 2026-04-25 11:41 | 52.90111 | -1.90480 | 30599 ft | 387 kts | 146° |
| 2026-04-25 11:42 | 52.87939 | -1.87863 | 30233 ft | 385 kts | 146° |
| 2026-04-25 11:42 | 52.85776 | -1.85261 | 29797 ft | 382 kts | 146° |
| 2026-04-25 11:42 | 52.83658 | -1.82716 | 29428 ft | 378 kts | 146° |
| 2026-04-25 11:42 | 52.81539 | -1.80174 | 29036 ft | 375 kts | 146° |
| 2026-04-25 11:43 | 52.79433 | -1.77649 | 28668 ft | 372 kts | 146° |
| 2026-04-25 11:43 | 52.77342 | -1.75143 | 28276 ft | 369 kts | 146° |
| 2026-04-25 11:43 | 52.75273 | -1.72664 | 27888 ft | 366 kts | 146° |
| 2026-04-25 11:43 | 52.73161 | -1.70367 | 27538 ft | 361 kts | 152° |
| 2026-04-25 11:44 | 52.70950 | -1.68394 | 27177 ft | 358 kts | 155° |
| 2026-04-25 11:44 | 52.68766 | -1.66581 | 26808 ft | 356 kts | 155° |
| 2026-04-25 11:44 | 52.66729 | -1.64910 | 26473 ft | 354 kts | 155° |
| 2026-04-25 11:44 | 52.64442 | -1.63019 | 26096 ft | 352 kts | 155° |
| 2026-04-25 11:45 | 52.62255 | -1.61188 | 25736 ft | 350 kts | 155° |
| 2026-04-25 11:45 | 52.60091 | -1.59360 | 25381 ft | 349 kts | 154° |
| 2026-04-25 11:45 | 52.57934 | -1.57527 | 25019 ft | 347 kts | 154° |
| 2026-04-25 11:45 | 52.55791 | -1.55701 | 24667 ft | 346 kts | 154° |
| 2026-04-25 11:46 | 52.53681 | -1.53901 | 24319 ft | 345 kts | 154° |
| 2026-04-25 11:46 | 52.51552 | -1.52085 | 23965 ft | 344 kts | 154° |
| 2026-04-25 11:46 | 52.49424 | -1.50271 | 23597 ft | 343 kts | 154° |
| 2026-04-25 11:46 | 52.47301 | -1.48463 | 23187 ft | 341 kts | 154° |
| 2026-04-25 11:47 | 52.45210 | -1.46685 | 22833 ft | 339 kts | 154° |
| 2026-04-25 11:47 | 52.43139 | -1.44926 | 22457 ft | 337 kts | 154° |
| 2026-04-25 11:47 | 52.41056 | -1.43158 | 22102 ft | 335 kts | 154° |
| 2026-04-25 11:47 | 52.38994 | -1.41412 | 21764 ft | 333 kts | 154° |
| 2026-04-25 11:48 | 52.36934 | -1.39669 | 21408 ft | 331 kts | 154° |
| 2026-04-25 11:48 | 52.34888 | -1.37943 | 21061 ft | 330 kts | 155° |
| 2026-04-25 11:48 | 52.32830 | -1.36331 | 20729 ft | 328 kts | 157° |
| 2026-04-25 11:48 | 52.30786 | -1.34651 | 20390 ft | 327 kts | 154° |
| 2026-04-25 11:49 | 52.28792 | -1.32894 | 20057 ft | 327 kts | 152° |
| 2026-04-25 11:49 | 52.26817 | -1.31023 | 19741 ft | 328 kts | 151° |
| 2026-04-25 11:49 | 52.24852 | -1.29126 | 19420 ft | 330 kts | 151° |
| 2026-04-25 11:49 | 52.22863 | -1.27212 | 19087 ft | 331 kts | 151° |
| 2026-04-25 11:50 | 52.20902 | -1.25337 | 18750 ft | 330 kts | 152° |
| 2026-04-25 11:50 | 52.18910 | -1.23446 | 18427 ft | 329 kts | 152° |
| 2026-04-25 11:50 | 52.16931 | -1.21576 | 18042 ft | 328 kts | 152° |
| 2026-04-25 11:50 | 52.14959 | -1.19718 | 17702 ft | 326 kts | 152° |
| 2026-04-25 11:51 | 52.13026 | -1.17900 | 17363 ft | 324 kts | 152° |
| 2026-04-25 11:51 | 52.11073 | -1.16064 | 17042 ft | 322 kts | 152° |
| 2026-04-25 11:51 | 52.09113 | -1.14226 | 16707 ft | 320 kts | 152° |
| 2026-04-25 11:51 | 52.07838 | -1.13032 | 16503 ft | 318 kts | 152° |
| 2026-04-25 11:52 | 52.05300 | -1.10659 | 16083 ft | 315 kts | 152° |
| 2026-04-25 11:52 | 52.04009 | -1.09455 | 15873 ft | 314 kts | 152° |
| 2026-04-25 11:52 | 52.02130 | -1.07699 | 15562 ft | 312 kts | 150° |
| 2026-04-25 11:52 | 52.00170 | -1.04395 | 15146 ft | 312 kts | 115° |
| 2026-04-25 11:53 | 51.99610 | -1.01033 | 14975 ft | 306 kts | 93° |
| 2026-04-25 11:53 | 51.99606 | -0.98751 | 14869 ft | 305 kts | 89° |
| 2026-04-25 11:53 | 51.99636 | -0.95285 | 14660 ft | 306 kts | 89° |
| 2026-04-25 11:53 | 51.99646 | -0.91815 | 14460 ft | 307 kts | 90° |
| 2026-04-25 11:54 | 51.99651 | -0.88353 | 14250 ft | 309 kts | 90° |
| 2026-04-25 11:54 | 51.99654 | -0.84843 | 14056 ft | 310 kts | 90° |
| 2026-04-25 11:54 | 51.99652 | -0.77886 | 13617 ft | 310 kts | 90° |
| 2026-04-25 11:55 | 51.99649 | -0.74381 | 13405 ft | 310 kts | 90° |
| 2026-04-25 11:55 | 51.99645 | -0.70881 | 13198 ft | 309 kts | 90° |
| 2026-04-25 11:55 | 51.99640 | -0.67415 | 13007 ft | 308 kts | 90° |
| 2026-04-25 11:55 | 51.99634 | -0.63953 | 12791 ft | 307 kts | 90° |
| 2026-04-25 11:56 | 51.99627 | -0.60465 | 12607 ft | 307 kts | 90° |
| 2026-04-25 11:56 | 51.99619 | -0.57021 | 12398 ft | 305 kts | 90° |
| 2026-04-25 11:56 | 51.99610 | -0.53639 | 12198 ft | 301 kts | 90° |
| 2026-04-25 11:56 | 51.99601 | -0.50262 | 12021 ft | 296 kts | 90° |
| 2026-04-25 11:57 | 51.99591 | -0.46931 | 11813 ft | 295 kts | 90° |
| 2026-04-25 11:57 | 51.99579 | -0.43616 | 11627 ft | 294 kts | 90° |
| 2026-04-25 11:57 | 51.99566 | -0.40325 | 11444 ft | 293 kts | 90° |
| 2026-04-25 11:57 | 51.99543 | -0.37008 | 11257 ft | 292 kts | 90° |
| 2026-04-25 11:58 | 51.99505 | -0.33718 | 11061 ft | 292 kts | 90° |
| 2026-04-25 11:58 | 51.99464 | -0.30428 | 10879 ft | 291 kts | 90° |
| 2026-04-25 11:58 | 51.99422 | -0.27136 | 10686 ft | 291 kts | 90° |
| 2026-04-25 11:58 | 51.99381 | -0.23841 | 10489 ft | 291 kts | 90° |
| 2026-04-25 11:59 | 51.99340 | -0.20556 | 10281 ft | 289 kts | 90° |
| 2026-04-25 11:59 | 51.99299 | -0.17327 | 10076 ft | 285 kts | 90° |
| 2026-04-25 11:59 | 51.99258 | -0.14167 | 9894 ft | 280 kts | 90° |
| 2026-04-25 12:00 | 51.99175 | -0.07835 | 9524 ft | 281 kts | 90° |
| 2026-04-25 12:00 | 51.99131 | -0.04655 | 9357 ft | 281 kts | 90° |
| 2026-04-25 12:00 | 51.99168 | 0.01582 | 8967 ft | 272 kts | 75° |
| 2026-04-25 12:01 | 52.00034 | 0.04219 | 8803 ft | 262 kts | 44° |
| 2026-04-25 12:01 | 52.01503 | 0.05861 | 8646 ft | 253 kts | 21° |
| 2026-04-25 12:01 | 52.03181 | 0.06522 | 8479 ft | 246 kts | 3° |
| 2026-04-25 12:01 | 52.04875 | 0.06641 | 8322 ft | 242 kts | 360° |
| 2026-04-25 12:02 | 52.08207 | 0.06760 | 8034 ft | 235 kts | 0° |
| 2026-04-25 12:02 | 52.09801 | 0.06765 | 7860 ft | 224 kts | 351° |
| 2026-04-25 12:02 | 52.11187 | 0.05843 | 7693 ft | 213 kts | 320° |
| 2026-04-25 12:03 | 52.12082 | 0.03995 | 7552 ft | 203 kts | 294° |
| 2026-04-25 12:03 | 52.12380 | 0.01813 | 7428 ft | 198 kts | 270° |
| 2026-04-25 12:03 | 52.12085 | -0.00336 | 7293 ft | 199 kts | 245° |
| 2026-04-25 12:03 | 52.11231 | -0.02102 | 7181 ft | 201 kts | 221° |
| 2026-04-25 12:04 | 52.10005 | -0.03201 | 7052 ft | 203 kts | 197° |
| 2026-04-25 12:04 | 52.08607 | -0.03636 | 6939 ft | 205 kts | 189° |
| 2026-04-25 12:04 | 52.07200 | -0.04049 | 6941 ft | 212 kts | 194° |
| 2026-04-25 12:04 | 52.05627 | -0.04769 | 6715 ft | 249 kts | 201° |
| 2026-04-25 12:05 | 52.04027 | -0.05911 | 6466 ft | 253 kts | 209° |
| 2026-04-25 12:05 | 52.02527 | -0.07421 | 6193 ft | 253 kts | 216° |
| 2026-04-25 12:05 | 52.01146 | -0.09200 | 5936 ft | 253 kts | 219° |
| 2026-04-25 12:05 | 51.99572 | -0.10346 | 5646 ft | 254 kts | 185° |
| 2026-04-25 12:06 | 51.97883 | -0.09750 | 5397 ft | 251 kts | 148° |
| 2026-04-25 12:06 | 51.96573 | -0.07922 | 5186 ft | 248 kts | 141° |
| 2026-04-25 12:06 | 51.95128 | -0.06361 | 4949 ft | 249 kts | 149° |
| 2026-04-25 12:06 | 51.93672 | -0.04837 | 4697 ft | 250 kts | 146° |
| 2026-04-25 12:07 | 51.92242 | -0.03216 | 4428 ft | 251 kts | 145° |
| 2026-04-25 12:07 | 51.90819 | -0.01571 | 4186 ft | 250 kts | 144° |
| 2026-04-25 12:07 | 51.89408 | 0.00062 | 3911 ft | 249 kts | 144° |
| 2026-04-25 12:07 | 51.87884 | 0.01329 | 3641 ft | 248 kts | 169° |
| 2026-04-25 12:08 | 51.86191 | 0.01318 | 3593 ft | 245 kts | 187° |
| 2026-04-25 12:08 | 51.84522 | 0.00715 | 3536 ft | 245 kts | 196° |
| 2026-04-25 12:08 | 51.82917 | -0.00041 | 3529 ft | 241 kts | 197° |
| 2026-04-25 12:08 | 51.81318 | -0.00784 | 3540 ft | 242 kts | 196° |
| 2026-04-25 12:09 | 51.79675 | -0.01527 | 3534 ft | 242 kts | 195° |
| 2026-04-25 12:09 | 51.78026 | -0.01739 | 3504 ft | 240 kts | 166° |
| 2026-04-25 12:09 | 51.76644 | -0.00324 | 3521 ft | 238 kts | 127° |
| 2026-04-25 12:09 | 51.76069 | 0.02130 | 3535 ft | 235 kts | 95° |
| 2026-04-25 12:10 | 51.76303 | 0.04629 | 3521 ft | 219 kts | 67° |
| 2026-04-25 12:10 | 51.77148 | 0.06580 | 3533 ft | 211 kts | 44° |
| 2026-04-25 12:10 | 51.78265 | 0.08161 | 3537 ft | 214 kts | 40° |
| 2026-04-25 12:10 | 51.79390 | 0.09764 | 3526 ft | 215 kts | 42° |
| 2026-04-25 12:11 | 51.80470 | 0.11383 | 3538 ft | 214 kts | 43° |
| 2026-04-25 12:11 | 51.81538 | 0.12996 | 3513 ft | 203 kts | 43° |
| 2026-04-25 12:11 | 51.82525 | 0.14487 | 3492 ft | 188 kts | 43° |
| 2026-04-25 12:11 | 51.83517 | 0.15971 | 2843 ft | 201 kts | 42° |
| 2026-04-25 12:12 | 51.84552 | 0.17509 | 2202 ft | 196 kts | 42° |
| 2026-04-25 12:12 | 51.85222 | 0.18512 | 1610 ft | 205 kts | 43° |
| 2026-04-25 12:12 | 51.86632 | 0.20642 | 799 ft | 207 kts | 43° |
| 2026-04-25 12:12 | 51.87677 | 0.22220 | 379 ft | 202 kts | 44° |
| 2026-04-25 12:13 | 51.88546 | 0.23528 | 355 ft | 119 kts | 43° |
| 2026-04-25 12:13 | 51.88864 | 0.24027 | 352 ft | 25 kts | 41° |
| 2026-04-25 12:13 | 51.88910 | 0.24094 | 350 ft | 0 kts | 41° |
| 2026-04-25 12:14 | 51.88911 | 0.24096 | 351 ft | 0 kts | 42° |
| 2026-04-25 12:15 | 51.88913 | 0.24098 | 351 ft | 0 kts | 42° |
| 2026-04-25 12:15 | 51.88914 | 0.24100 | 351 ft | 1 kts | 42° |
| 2026-04-25 12:15 | 51.88916 | 0.24103 | 351 ft | 0 kts | 42° |
| 2026-04-25 12:15 | 51.88944 | 0.24144 | 355 ft | 23 kts | 42° |
| 2026-04-25 12:16 | 51.89063 | 0.24390 | 353 ft | 33 kts | 64° |
| 2026-04-25 12:16 | 51.89123 | 0.24619 | 357 ft | 14 kts | 67° |
| 2026-04-25 12:16 | 51.89161 | 0.24766 | 359 ft | 14 kts | 69° |
| 2026-04-25 12:16 | 51.89136 | 0.24881 | 356 ft | 11 kts | 172° |
| 2026-04-25 12:17 | 51.89065 | 0.24832 | 356 ft | 12 kts | 193° |
| 2026-04-25 12:17 | 51.88996 | 0.24887 | 357 ft | 12 kts | 136° |
| 2026-04-25 12:17 | 51.88932 | 0.24981 | 360 ft | 12 kts | 137° |
| 2026-04-25 12:17 | 51.88876 | 0.25077 | 357 ft | 12 kts | 132° |
| 2026-04-25 12:18 | 51.88836 | 0.25165 | 358 ft | 4 kts | 98° |
| 2026-04-25 12:18 | 51.88837 | 0.25167 | 358 ft | 0 kts | 94° |
| 2026-04-25 12:18 | 51.88836 | 0.25175 | 358 ft | 0 kts | 92° |
| 2026-04-25 12:18 | 51.88840 | 0.25213 | 358 ft | 0 kts | 70° |
| 2026-04-25 12:19 | 51.88870 | 0.25271 | 358 ft | 0 kts | 44° |
| 2026-04-25 12:19 | 51.88871 | 0.25272 | 358 ft | 0 kts | 44° |
| 2026-04-25 12:20 | 51.88872 | 0.25274 | 357 ft | 0 kts | 44° |
| 2026-04-25 12:20 | 51.88873 | 0.25275 | 357 ft | 0 kts | 44° |
| 2026-04-25 12:20 | 51.88873 | 0.25276 | 357 ft | 0 kts | 44° |
| 2026-04-25 12:21 | 51.88874 | 0.25276 | 357 ft | 0 kts | 44° |
| 2026-04-25 12:21 | 51.88875 | 0.25279 | 359 ft | 1 kts | 44° |
| 2026-04-25 12:21 | 51.88886 | 0.25295 | 354 ft | 4 kts | 43° |
| 2026-04-25 12:21 | 51.88900 | 0.25317 | 354 ft | 0 kts | 43° |